Time;durP1;ratioP1;P1;durP2;ratioP2;P2;SDS_P1;SDS_P2;PMS_P1;PMS_P2;Temp;Humidity;BMP_temperature;BMP_pressure;BME280_temperature;BME280_humidity;BME280_pressure;Samples;Min_cycle;Max_cycle;Signal;HPM_P1;HPM_P2
2021/12/10 00:00:43;;;;;;;9.57;4.33;;;7.70;67.10;;;10.38;52.68;99959.50;4936815;29;20202;-47
2021/12/10 00:03:16;;;;;;;7.37;4.33;;;7.70;67.10;;;10.39;53.02;99957.69;4937269;29;20746;-47
2021/12/10 00:05:51;;;;;;;6.43;4.60;;;7.70;67.30;;;10.40;52.96;99959.28;4937065;29;20622;-47
2021/12/10 00:08:20;;;;;;;10.30;4.87;;;7.70;67.30;;;10.40;52.50;99949.59;4936763;29;20221;-47
2021/12/10 00:10:54;;;;;;;6.90;4.60;;;7.60;68.00;;;10.43;53.16;99951.84;4936468;29;20206;-49
2021/12/10 00:13:23;;;;;;;6.43;5.27;;;7.60;67.60;;;10.45;52.87;99946.38;4936863;29;20219;-49
2021/12/10 00:15:54;;;;;;;8.60;4.80;;;7.60;67.70;;;10.41;52.56;99940.66;4936561;29;20196;-46
2021/12/10 00:18:30;;;;;;;5.57;5.07;;;7.60;67.70;;;10.38;53.38;99941.06;4940043;29;20245;-48
2021/12/10 00:20:59;;;;;;;5.60;4.23;;;7.60;67.80;;;10.32;53.33;99931.31;4937739;29;20192;-48
2021/12/10 00:23:29;;;;;;;6.17;4.13;;;7.60;67.80;;;10.29;52.97;99931.72;4936463;29;20300;-48
2021/12/10 00:26:00;;;;;;;9.47;4.50;;;7.60;67.90;;;10.26;53.76;99926.84;4936616;29;20204;-48
2021/12/10 00:28:34;;;;;;;7.87;4.40;;;7.60;68.00;;;10.26;53.47;99926.84;4936662;29;20218;-48
2021/12/10 00:31:19;;;;;;;5.77;4.57;;;7.60;68.10;;;10.32;53.52;99914.75;4936397;29;20193;-48
2021/12/10 00:33:53;;;;;;;8.47;4.73;;;7.60;68.30;;;10.36;53.20;99918.59;4936388;29;20249;-47
2021/12/10 00:36:22;;;;;;;7.23;5.07;;;7.60;68.30;;;10.37;53.76;99921.03;4936090;29;20198;-49
2021/12/10 00:38:53;;;;;;;9.90;4.97;;;7.60;68.20;;;10.32;53.35;99915.53;4936132;29;20301;-47
2021/12/10 00:41:24;;;;;;;7.20;4.80;;;7.60;68.10;;;10.29;53.70;99909.84;4937878;29;20194;-48
2021/12/10 00:43:52;;;;;;;8.20;5.17;;;7.60;68.20;;;10.24;53.73;99902.53;4938146;29;20295;-48
2021/12/10 00:46:20;;;;;;;6.00;4.37;;;7.60;68.20;;;10.25;53.68;99909.41;4936879;29;20664;-47
2021/12/10 00:48:47;;;;;;;6.73;4.63;;;7.60;68.30;;;10.27;53.53;99907.41;4937077;29;20214;-50
2021/12/10 00:51:15;;;;;;;6.30;4.87;;;7.60;68.40;;;10.28;53.66;99903.78;4937531;29;20194;-46
2021/12/10 00:53:43;;;;;;;7.23;4.73;;;7.50;68.30;;;10.32;53.57;99897.13;4937053;29;20567;-47
2021/12/10 00:56:11;;;;;;;6.57;4.93;;;7.50;68.50;;;10.36;53.39;99901.00;4937197;29;20198;-50
2021/12/10 00:58:41;;;;;;;5.57;4.40;;;7.50;68.50;;;10.38;53.69;99904.25;4936797;29;20774;-48
2021/12/10 01:01:14;;;;;;;7.37;4.90;;;7.50;68.60;;;10.36;53.38;99906.25;4937739;29;20784;-47
2021/12/10 01:03:46;;;;;;;8.97;4.77;;;7.60;68.50;;;10.34;53.72;99903.00;4938094;29;20214;-47
2021/12/10 01:06:17;;;;;;;6.13;4.87;;;7.50;68.40;;;10.25;53.24;99898.91;4937665;29;20198;-47
2021/12/10 01:08:49;;;;;;;6.63;5.20;;;7.50;68.20;;;10.20;53.36;99890.78;4937552;29;20667;-48
2021/12/10 01:11:24;;;;;;;8.70;5.03;;;7.50;68.20;;;10.20;54.11;99888.13;4939716;29;20220;-47
2021/12/10 01:14:09;;;;;;;6.70;4.93;;;7.50;68.50;;;10.21;53.80;99887.16;4940298;29;20270;-50
2021/12/10 01:27:34;;;;;;;7.53;4.80;;;7.40;68.70;;;10.16;54.06;99873.75;4940075;29;20214;-48
2021/12/10 01:30:13;;;;;;;6.70;5.00;;;7.50;68.80;;;10.17;53.43;99870.16;4939560;29;20190;-48
2021/12/10 01:32:49;;;;;;;9.00;4.87;;;7.40;68.80;;;10.21;53.55;99874.00;4940071;29;20198;-49
2021/12/10 01:35:24;;;;;;;9.90;4.60;;;7.40;69.70;;;10.22;53.43;99872.19;4940445;29;20186;-50
2021/12/10 01:37:54;;;;;;;6.23;4.53;;;7.40;68.90;;;10.21;53.64;99876.63;4940119;29;20225;-47
2021/12/10 01:40:25;;;;;;;7.23;5.13;;;7.40;69.00;;;10.18;54.04;99871.75;4942908;29;20197;-46
2021/12/10 01:43:05;;;;;;;9.20;4.20;;;7.40;69.00;;;10.18;53.84;99863.88;4944122;29;20233;-47
2021/12/10 01:45:45;;;;;;;6.67;4.90;;;7.40;69.10;;;10.18;54.31;99871.75;4943984;29;20272;-48
2021/12/10 01:48:19;;;;;;;8.93;4.37;;;7.40;69.20;;;10.18;54.03;99867.31;4945038;29;20288;-51
2021/12/10 01:50:48;;;;;;;5.00;4.50;;;7.40;69.30;;;10.13;54.00;99859.19;4944202;29;20655;-51
2021/12/10 01:53:21;;;;;;;8.47;5.40;;;7.40;69.20;;;10.12;54.22;99859.38;4944129;29;20193;-53
2021/12/10 01:55:53;;;;;;;5.53;4.17;;;7.40;69.40;;;10.14;54.04;99844.22;4944286;29;20197;-47
2021/12/10 01:58:24;;;;;;;6.60;4.57;;;7.40;69.40;;;10.19;54.28;99847.09;4943693;29;20221;-48
2021/12/10 02:01:00;;;;;;;5.57;4.97;;;7.40;69.60;;;10.20;54.25;99849.53;4943936;29;20190;-47
2021/12/10 02:03:28;;;;;;;6.40;5.37;;;7.40;69.40;;;10.22;53.94;99846.72;4945491;29;20284;-46
2021/12/10 02:05:56;;;;;;;8.10;4.97;;;7.40;69.40;;;10.26;54.14;99853.19;4946730;29;20221;-48
2021/12/10 02:08:23;;;;;;;5.03;4.27;;;7.40;69.50;;;10.31;54.10;99850.81;4947077;29;20222;-48
2021/12/10 02:10:51;;;;;;;6.53;4.80;;;7.40;69.60;;;10.33;54.38;99848.78;4944845;29;20206;-52
2021/12/10 02:13:18;;;;;;;7.57;4.83;;;7.50;69.70;;;10.37;54.28;99844.75;4942677;29;20197;-53
2021/12/10 02:15:46;;;;;;;6.70;4.50;;;7.50;69.60;;;10.40;53.82;99844.38;4947981;29;20301;-48
2021/12/10 02:18:16;;;;;;;7.30;4.67;;;7.50;69.40;;;10.41;53.83;99842.56;4953818;29;20222;-56
2021/12/10 02:20:53;;;;;;;6.57;5.30;;;7.50;69.30;;;10.38;54.07;99848.19;4955207;29;20225;-48
2021/12/10 02:23:22;;;;;;;5.70;4.80;;;7.50;69.30;;;10.38;53.89;99841.13;4956396;29;20265;-52
2021/12/10 02:25:50;;;;;;;7.17;5.23;;;7.50;69.30;;;10.39;53.75;99832.22;4955669;29;20205;-52
2021/12/10 02:28:18;;;;;;;8.23;5.00;;;7.60;69.50;;;10.41;53.75;99832.81;4955715;29;20218;-57
2021/12/10 02:30:46;;;;;;;6.20;5.03;;;7.50;69.30;;;10.39;53.69;99819.06;4955941;29;20201;-51
2021/12/10 02:33:15;;;;;;;5.67;5.07;;;7.50;69.30;;;10.39;53.98;99807.75;4955497;29;20190;-57
2021/12/10 02:35:43;;;;;;;6.63;5.33;;;7.60;69.40;;;10.38;54.36;99809.56;4954929;29;20198;-54
2021/12/10 02:38:15;;;;;;;6.20;5.20;;;7.50;69.30;;;10.37;53.56;99802.66;4955042;29;20250;-51
2021/12/10 02:40:43;;;;;;;6.17;5.27;;;7.50;69.30;;;10.33;54.33;99798.81;4955105;29;20208;-55
2021/12/10 02:43:14;;;;;;;8.27;5.50;;;7.50;69.30;;;10.32;53.89;99799.81;4955871;29;20221;-51
2021/12/10 02:45:47;;;;;;;6.83;4.53;;;7.50;69.20;;;10.28;53.92;99793.31;4955727;29;20228;-47
2021/12/10 02:48:14;;;;;;;6.07;4.63;;;7.50;69.10;;;10.26;53.70;99786.63;4953017;29;20229;-52
2021/12/10 02:50:44;;;;;;;7.67;5.80;;;7.50;69.10;;;10.29;54.07;99796.78;4953126;29;20194;-52
2021/12/10 02:53:22;;;;;;;8.63;4.77;;;7.50;69.30;;;10.31;53.70;99787.69;4953489;29;20198;-47
2021/12/10 02:55:50;;;;;;;8.60;5.37;;;7.50;69.40;;;10.35;53.77;99782.81;4952132;29;20201;-53
2021/12/10 02:58:17;;;;;;;7.07;5.07;;;7.50;69.40;;;10.33;53.83;99785.66;4952070;29;20274;-52
2021/12/10 03:00:53;;;;;;;7.83;5.83;;;7.50;69.40;;;10.35;54.21;99783.63;4954651;29;20198;-57
2021/12/10 03:03:20;;;;;;;7.50;5.13;;;7.50;69.50;;;10.41;53.95;99772.31;4952504;29;20194;-57
2021/12/10 03:05:49;;;;;;;8.50;4.80;;;7.50;69.50;;;10.46;53.87;99772.53;4954133;29;20245;-48
2021/12/10 03:08:18;;;;;;;5.67;4.90;;;7.50;69.50;;;10.47;53.86;99776.00;4954502;29;20221;-51
2021/12/10 03:10:46;;;;;;;5.97;4.60;;;7.60;69.30;;;10.41;53.41;99767.06;4952447;29;20204;-54
2021/12/10 03:13:15;;;;;;;6.67;4.70;;;7.60;69.20;;;10.36;53.78;99764.25;4937551;29;20189;-49
2021/12/10 03:15:42;;;;;;;6.27;5.07;;;7.50;68.90;;;10.35;53.89;99759.97;4937346;29;20186;-48
2021/12/10 03:18:15;;;;;;;5.83;4.40;;;7.50;69.00;;;10.40;53.75;99764.63;4937023;29;20210;-49
2021/12/10 03:20:43;;;;;;;5.57;4.07;;;7.60;69.20;;;10.42;53.45;99758.19;4937644;29;20204;-48
2021/12/10 03:23:11;;;;;;;5.63;4.27;;;7.50;69.20;;;10.42;53.57;99752.09;4937916;29;20225;-50
2021/12/10 03:25:41;;;;;;;7.03;4.50;;;7.50;69.10;;;10.44;53.24;99750.91;4937642;29;20249;-50
2021/12/10 03:28:10;;;;;;;6.73;4.93;;;7.50;69.10;;;10.43;53.47;99754.56;4937042;29;20691;-49
2021/12/10 03:30:43;;;;;;;8.70;5.30;;;7.60;69.10;;;10.41;53.78;99756.53;4937719;29;20301;-49
2021/12/10 03:33:11;;;;;;;7.73;5.13;;;7.60;69.00;;;10.39;53.55;99753.31;4937186;29;20198;-48
2021/12/10 03:35:46;;;;;;;9.27;5.50;;;7.60;68.90;;;10.34;53.39;99747.81;4937177;29;20194;-49
2021/12/10 03:38:19;;;;;;;7.60;5.30;;;7.60;68.90;;;10.29;54.01;99737.09;4937147;29;20689;-49
2021/12/10 03:40:48;;;;;;;8.30;4.73;;;7.50;68.80;;;10.24;54.26;99736.88;4937999;29;20265;-49
2021/12/10 03:43:17;;;;;;;7.53;5.57;;;7.50;68.90;;;10.23;54.20;99732.63;4937569;29;20683;-49
2021/12/10 03:45:48;;;;;;;7.27;5.33;;;7.50;69.10;;;10.23;53.98;99724.72;4937531;29;20228;-51
2021/12/10 03:48:20;;;;;;;7.77;5.33;;;7.40;69.20;;;10.20;54.25;99733.81;4936221;29;20230;-50
2021/12/10 03:50:49;;;;;;;8.37;5.80;;;7.50;69.30;;;10.20;54.36;99727.75;4937467;29;20202;-49
2021/12/10 03:53:18;;;;;;;7.73;5.47;;;7.40;69.40;;;10.14;54.63;99731.19;4937327;29;20204;-48
2021/12/10 03:55:49;;;;;;;6.77;5.70;;;7.40;70.20;;;10.02;54.28;99727.44;4937172;29;20193;-49
2021/12/10 03:58:18;;;;;;;6.83;5.40;;;7.40;69.50;;;9.96;54.69;99725.63;4936113;29;20218;-49
2021/12/10 04:00:49;;;;;;;6.93;5.23;;;7.30;69.60;;;9.93;54.75;99720.75;4936483;29;20209;-48
2021/12/10 04:03:21;;;;;;;7.67;6.33;;;7.30;69.70;;;9.86;54.83;99719.91;4937056;29;20352;-49
2021/12/10 04:05:49;;;;;;;8.23;5.77;;;7.20;70.00;;;9.79;54.86;99716.44;4936403;29;20213;-50
2021/12/10 04:08:17;;;;;;;6.37;5.43;;;7.20;69.90;;;9.78;55.49;99715.63;4936437;29;20214;-49
2021/12/10 04:10:48;;;;;;;7.07;5.80;;;7.20;70.20;;;9.82;55.36;99713.38;4936613;29;20209;-49
2021/12/10 04:13:16;;;;;;;9.10;6.47;;;7.20;70.40;;;9.76;55.04;99709.75;4937060;29;20204;-49
2021/12/10 04:15:45;;;;;;;8.47;5.70;;;7.10;70.40;;;9.72;55.35;99702.44;4936779;29;20370;-50
2021/12/10 04:18:13;;;;;;;8.37;5.70;;;7.10;70.40;;;9.66;55.62;99708.47;4936178;29;20217;-48
2021/12/10 04:20:42;;;;;;;10.27;5.70;;;7.10;70.50;;;9.65;55.62;99706.84;4937179;29;20198;-50
2021/12/10 04:23:14;;;;;;;11.00;6.17;;;7.00;70.40;;;9.61;55.54;99700.34;4936053;29;20276;-48
2021/12/10 04:25:43;;;;;;;7.87;5.70;;;7.00;70.50;;;9.58;55.94;99706.00;4937012;29;20241;-48
2021/12/10 04:28:19;;;;;;;8.00;6.17;;;7.00;70.60;;;9.55;55.81;99702.75;4936601;29;20296;-49
2021/12/10 04:30:48;;;;;;;10.23;6.70;;;7.00;70.80;;;9.55;55.67;99704.59;4937063;29;20188;-49
2021/12/10 04:33:21;;;;;;;10.17;6.17;;;7.00;70.80;;;9.53;56.11;99699.50;4937057;29;20209;-48
2021/12/10 04:35:52;;;;;;;9.70;5.77;;;6.90;70.80;;;9.43;56.30;99693.81;4937243;29;20651;-46
2021/12/10 04:38:25;;;;;;;7.93;6.20;;;6.90;70.90;;;9.41;56.59;99693.16;4936491;29;20217;-48
2021/12/10 04:40:57;;;;;;;8.70;6.03;;;6.90;71.00;;;9.40;56.45;99694.19;4936596;29;20206;-47
2021/12/10 04:43:25;;;;;;;9.20;5.83;;;6.90;71.00;;;9.42;56.63;99681.66;4938306;29;20606;-48
2021/12/10 04:45:55;;;;;;;7.37;6.57;;;6.80;71.20;;;9.41;56.12;99682.66;4945689;29;20623;-47
2021/12/10 04:48:23;;;;;;;8.10;5.37;;;6.80;71.20;;;9.43;56.46;99678.06;4922934;29;20289;-48
2021/12/10 04:50:52;;;;;;;8.73;6.20;;;6.90;71.30;;;9.45;56.37;99675.22;4940260;29;20682;-48
2021/12/10 04:53:20;;;;;;;7.00;5.87;;;6.90;71.40;;;9.45;56.33;99676.03;4940387;29;20193;-48
2021/12/10 04:55:49;;;;;;;8.53;6.27;;;6.80;71.20;;;9.43;56.29;99675.44;4941022;29;20196;-48
2021/12/10 04:58:16;;;;;;;10.33;6.87;;;6.80;71.20;;;9.45;56.21;99675.22;4939442;29;20224;-48
2021/12/10 05:00:49;;;;;;;7.47;6.03;;;6.80;71.30;;;9.50;56.24;99668.41;4939938;29;20201;-48
2021/12/10 05:03:17;;;;;;;8.83;6.80;;;6.90;71.50;;;9.58;56.53;99671.88;4940075;29;20272;-48
2021/12/10 05:05:46;;;;;;;8.77;6.93;;;6.90;71.50;;;9.61;55.94;99680.16;4940098;29;20336;-49
2021/12/10 05:08:14;;;;;;;11.70;7.33;;;6.90;71.50;;;9.66;55.75;99683.00;4939806;29;20578;-48
2021/12/10 05:10:43;;;;;;;8.70;5.90;;;6.90;71.40;;;9.73;55.70;99680.41;4940452;29;20588;-47
2021/12/10 05:13:10;;;;;;;7.77;6.07;;;6.90;71.40;;;9.79;55.44;99679.66;4940050;29;20194;-46
2021/12/10 05:15:39;;;;;;;8.60;6.50;;;7.00;71.50;;;9.86;55.25;99677.84;4942995;29;20190;-48
2021/12/10 05:18:12;;;;;;;8.90;5.87;;;7.00;71.50;;;9.90;55.57;99673.81;4938748;29;20249;-48
2021/12/10 05:20:43;;;;;;;10.07;6.53;;;7.00;71.40;;;9.94;55.13;99664.53;4939956;29;20170;-48
2021/12/10 05:23:11;;;;;;;8.50;6.40;;;7.10;71.40;;;9.99;55.22;99657.69;4939850;29;20618;-48
2021/12/10 05:25:38;;;;;;;9.80;7.30;;;7.10;71.30;;;10.03;54.87;99655.47;4939424;29;20230;-48
2021/12/10 05:28:06;;;;;;;7.43;6.60;;;7.10;71.10;;;10.04;55.49;99649.19;4940015;29;20336;-48
2021/12/10 05:30:34;;;;;;;7.40;6.40;;;7.20;71.10;;;10.01;55.19;99654.84;4939939;29;20194;-49
2021/12/10 05:33:03;;;;;;;8.53;6.80;;;7.10;70.70;;;9.94;55.34;99654.81;4940322;29;20227;-48
2021/12/10 05:35:33;;;;;;;11.43;7.07;;;7.10;70.50;;;9.88;54.96;99660.88;4939720;29;20194;-48
2021/12/10 05:38:02;;;;;;;10.00;7.37;;;7.20;70.60;;;9.84;55.58;99669.38;4939834;29;20224;-49
2021/12/10 05:40:29;;;;;;;9.20;7.20;;;7.10;70.50;;;9.79;55.18;99661.25;4939994;29;20190;-48
2021/12/10 05:42:56;;;;;;;9.27;7.80;;;7.10;70.60;;;9.75;55.39;99652.94;4940042;29;20206;-48
2021/12/10 05:45:25;;;;;;;10.93;7.47;;;7.10;70.80;;;9.73;55.36;99656.75;4939746;29;20631;-49
2021/12/10 05:47:53;;;;;;;10.63;6.77;;;7.00;70.80;;;9.67;55.94;99657.56;4938893;29;20262;-48
2021/12/10 05:50:25;;;;;;;8.97;7.33;;;7.10;70.90;;;9.68;56.11;99656.53;4939803;29;20610;-47
2021/12/10 05:52:54;;;;;;;11.13;7.20;;;7.00;70.90;;;9.64;55.98;99648.25;4939074;29;20224;-48
2021/12/10 05:55:23;;;;;;;12.30;7.67;;;7.00;71.10;;;9.64;55.91;99652.69;4938834;29;20203;-49
2021/12/10 05:57:51;;;;;;;10.10;8.13;;;7.00;71.20;;;9.63;55.82;99643.19;4939156;29;20222;-48
2021/12/10 06:00:24;;;;;;;7.77;6.43;;;7.00;71.20;;;9.59;56.04;99639.31;4939302;29;20192;-48
2021/12/10 06:02:52;;;;;;;8.13;6.97;;;7.00;71.20;;;9.62;56.54;99638.94;4939405;29;20194;-49
2021/12/10 06:05:21;;;;;;;8.60;7.50;;;6.90;71.30;;;9.69;55.87;99634.53;4938607;29;20226;-49
2021/12/10 06:07:49;;;;;;;10.70;7.80;;;7.00;71.50;;;9.71;55.77;99645.66;4937946;29;20249;-49
2021/12/10 06:10:21;;;;;;;11.00;7.10;;;7.00;71.50;;;9.72;56.37;99639.41;4938526;29;20201;-48
2021/12/10 06:12:50;;;;;;;8.53;7.60;;;7.00;71.60;;;9.72;56.21;99645.47;4938268;29;20503;-48
2021/12/10 06:15:21;;;;;;;9.20;6.87;;;7.00;71.50;;;9.73;55.91;99635.75;4939598;29;20192;-49
2021/12/10 06:17:50;;;;;;;9.23;7.57;;;7.00;71.60;;;9.74;55.70;99642.63;4938596;29;20301;-48
2021/12/10 06:20:23;;;;;;;10.43;7.63;;;7.00;71.60;;;9.72;56.20;99629.69;4939393;29;20200;-48
2021/12/10 06:22:51;;;;;;;9.10;7.03;;;7.00;71.80;;;9.73;56.73;99635.75;4941616;29;20197;-46
2021/12/10 06:25:21;;;;;;;11.43;8.10;;;7.00;71.90;;;9.71;56.14;99637.75;4941190;29;20205;-48
2021/12/10 06:27:48;;;;;;;10.03;7.30;;;7.00;72.10;;;9.69;56.48;99629.28;4938425;29;20226;-48
2021/12/10 06:30:21;;;;;;;9.80;7.53;;;7.00;72.20;;;9.64;56.42;99631.66;4938445;29;20217;-48
2021/12/10 06:32:52;;;;;;;10.87;8.00;;;7.00;72.40;;;9.58;57.09;99635.09;4938746;29;20218;-47
2021/12/10 06:35:21;;;;;;;11.93;8.40;;;6.90;72.50;;;9.53;57.32;99639.09;4938626;29;20469;-48
2021/12/10 06:37:51;;;;;;;9.83;7.97;;;6.90;72.70;;;9.50;57.91;99638.69;4938136;29;20210;-48
2021/12/10 06:40:23;;;;;;;9.77;8.07;;;6.90;72.90;;;9.50;57.82;99636.88;4939165;29;20190;-49
2021/12/10 06:42:51;;;;;;;8.73;7.30;;;6.90;73.20;;;9.49;58.11;99635.25;4939350;29;20201;-49
2021/12/10 06:45:23;;;;;;;9.30;8.40;;;6.90;73.50;;;9.51;57.82;99632.41;4938396;29;20212;-47
2021/12/10 06:47:54;;;;;;;10.40;7.33;;;6.90;73.70;;;9.56;57.72;99624.75;4938906;29;20218;-49
2021/12/10 06:50:25;;;;;;;10.50;8.07;;;6.90;73.70;;;9.61;57.82;99626.81;4940487;29;20201;-48
2021/12/10 06:52:53;;;;;;;11.67;7.87;;;6.80;74.00;;;9.67;58.06;99626.03;4944022;29;20198;-48
2021/12/10 06:55:22;;;;;;;10.20;7.90;;;6.90;74.10;;;9.73;57.90;99626.06;4937792;29;20194;-48
2021/12/10 06:57:49;;;;;;;12.27;8.10;;;6.90;74.30;;;9.79;57.77;99621.84;4937703;29;20220;-49
2021/12/10 07:00:22;;;;;;;9.93;7.80;;;6.90;74.30;;;9.79;57.61;99611.31;4938173;29;20273;-48
2021/12/10 07:02:50;;;;;;;14.07;8.60;;;6.90;74.90;;;9.78;57.01;99609.69;4937522;29;20538;-47
2021/12/10 07:05:18;;;;;;;13.07;8.80;;;6.90;73.90;;;9.75;57.40;99608.28;4937479;29;20317;-48
2021/12/10 07:07:46;;;;;;;10.83;8.07;;;7.00;73.80;;;9.70;57.22;99605.41;4937626;29;20217;-50
2021/12/10 07:10:16;;;;;;;15.90;8.37;;;7.00;73.80;;;9.65;57.68;99601.78;4938601;29;20277;-48
2021/12/10 07:12:46;;;;;;;13.27;8.60;;;7.00;73.50;;;9.58;57.48;99599.09;4938573;29;20196;-46
2021/12/10 07:15:16;;;;;;;12.63;8.73;;;6.90;73.30;;;9.54;57.92;99595.25;4938317;29;20200;-48
2021/12/10 07:17:50;;;;;;;11.83;8.83;;;6.90;73.40;;;9.52;57.45;99595.47;4937939;29;20525;-49
2021/12/10 07:20:22;;;;;;;10.30;7.73;;;6.90;73.40;;;9.54;57.51;99603.97;4938205;29;20200;-48
2021/12/10 07:22:52;;;;;;;9.73;7.60;;;6.90;73.70;;;9.60;57.76;99601.56;4939576;29;20209;-49
2021/12/10 07:25:20;;;;;;;12.30;8.73;;;6.80;73.70;;;9.58;57.14;99600.94;4938201;29;20205;-48
2021/12/10 07:27:51;;;;;;;12.80;8.33;;;6.90;73.50;;;9.54;57.24;99600.50;4941884;29;20260;-49
2021/12/10 07:30:25;;;;;;;12.30;9.33;;;6.80;73.30;;;9.47;57.56;99594.44;4938370;29;20531;-48
2021/12/10 07:32:53;;;;;;;13.47;10.07;;;6.80;73.30;;;9.44;57.61;99594.81;4937329;29;20241;-49
2021/12/10 07:35:21;;;;;;;11.63;8.80;;;6.80;73.20;;;9.45;57.88;99597.25;4937288;29;20194;-48
2021/12/10 07:37:51;;;;;;;11.80;9.23;;;6.80;73.40;;;9.42;57.28;99592.38;4937004;29;20222;-48
2021/12/10 07:40:27;;;;;;;10.53;8.90;;;6.80;73.40;;;9.37;57.42;99592.16;4938221;29;20197;-47
2021/12/10 07:42:56;;;;;;;12.33;9.20;;;6.80;73.40;;;9.36;58.09;99589.75;4938117;29;20280;-47
2021/12/10 07:45:25;;;;;;;11.37;9.00;;;6.70;73.30;;;9.34;57.76;99589.91;4937151;29;20200;-46
2021/12/10 07:47:54;;;;;;;12.37;9.07;;;6.70;73.40;;;9.33;58.17;99590.13;4937399;29;20246;-47
2021/12/10 07:50:28;;;;;;;11.57;9.67;;;6.70;73.30;;;9.32;58.12;99589.31;4937470;29;20195;-51
2021/12/10 07:52:57;;;;;;;11.80;9.83;;;6.70;73.50;;;9.34;57.97;99589.91;4937426;29;20199;-49
2021/12/10 07:55:28;;;;;;;11.87;9.27;;;6.60;73.50;;;9.35;58.03;99580.22;4936254;29;20227;-49
2021/12/10 07:58:00;;;;;;;11.40;9.17;;;6.60;73.70;;;9.36;57.69;99582.69;4936260;29;20246;-49
2021/12/10 08:00:31;;;;;;;14.73;9.53;;;6.60;73.60;;;9.38;57.72;99575.41;4936487;29;20284;-49
2021/12/10 08:02:59;;;;;;;11.73;9.03;;;6.60;73.80;;;9.41;57.93;99579.47;4937798;29;20198;-48
2021/12/10 08:05:27;;;;;;;13.13;10.33;;;6.60;74.00;;;9.46;57.40;99583.09;4937365;29;20278;-50
2021/12/10 08:08:00;;;;;;;13.30;9.70;;;6.60;74.10;;;9.49;57.33;99582.72;4937002;29;20232;-49
2021/12/10 08:10:29;;;;;;;14.43;10.40;;;6.60;74.20;;;9.53;57.07;99583.16;4937011;29;20555;-47
2021/12/10 08:12:58;;;;;;;13.57;10.23;;;6.60;74.20;;;9.57;57.69;99578.31;4936188;29;20310;-49
2021/12/10 08:15:26;;;;;;;14.90;11.77;;;6.60;74.10;;;9.55;57.38;99581.91;4936879;29;20297;-49
2021/12/10 08:17:54;;;;;;;15.73;11.50;;;6.70;74.00;;;9.57;56.91;99586.19;4936146;29;20577;-49
2021/12/10 08:20:26;;;;;;;13.70;10.50;;;6.70;73.90;;;9.54;56.87;99579.50;4937411;29;20221;-48
2021/12/10 08:22:55;;;;;;;15.60;11.07;;;6.70;73.80;;;9.53;57.37;99578.69;4937874;29;20215;-49
2021/12/10 08:25:26;;;;;;;13.80;10.07;;;6.70;73.80;;;9.51;57.27;99572.81;4938069;29;20202;-49
2021/12/10 08:27:56;;;;;;;12.50;9.77;;;6.70;73.70;;;9.51;57.60;99574.63;4938172;29;20207;-47
2021/12/10 08:30:28;;;;;;;12.77;10.17;;;6.70;73.70;;;9.48;57.25;99575.84;4939430;29;20584;-47
2021/12/10 08:32:58;;;;;;;13.83;10.30;;;6.70;73.80;;;9.47;57.14;99576.03;4939247;29;20231;-47
2021/12/10 08:35:30;;;;;;;14.70;10.47;;;6.70;73.60;;;9.41;57.13;99572.38;4937814;29;20200;-47
2021/12/10 08:38:01;;;;;;;12.13;9.87;;;6.70;73.50;;;9.39;57.54;99566.50;4935316;29;20237;-48
2021/12/10 08:40:33;;;;;;;11.40;9.27;;;6.60;73.40;;;9.38;57.20;99574.59;4928652;29;20232;-50
2021/12/10 08:43:04;;;;;;;13.63;10.13;;;6.60;73.60;;;9.38;57.74;99567.53;4921230;29;20213;-47
2021/12/10 08:45:39;;;;;;;12.87;10.33;;;6.60;73.70;;;9.34;57.33;99562.88;4919878;29;20659;-49
2021/12/10 08:48:07;;;;;;;12.10;9.57;;;6.60;73.50;;;9.32;57.52;99565.66;4919776;29;20241;-48
2021/12/10 08:50:37;;;;;;;15.13;11.17;;;6.60;73.50;;;9.28;57.56;99564.44;4920262;29;20198;-49
2021/12/10 08:53:13;;;;;;;10.93;9.50;;;6.60;73.50;;;9.24;57.77;99563.22;4920402;29;20249;-49
2021/12/10 08:55:43;;;;;;;17.33;10.40;;;6.60;73.40;;;9.26;57.61;99566.47;4920437;29;20207;-49
2021/12/10 08:58:12;;;;;;;15.70;10.73;;;6.60;73.70;;;9.24;57.20;99560.59;4920655;29;20240;-50
2021/12/10 09:00:51;;;;;;;13.97;9.43;;;6.60;73.40;;;9.23;57.76;99572.09;4923318;29;20205;-48
2021/12/10 09:03:38;;;;;;;14.33;10.27;;;6.60;73.50;;;9.23;57.94;99571.28;4925073;29;20205;-50
2021/12/10 09:06:07;;;;;;;13.73;9.97;;;6.60;73.50;;;9.21;57.67;99568.84;4923986;29;20224;-47
2021/12/10 09:08:36;;;;;;;18.47;10.97;;;6.60;73.40;;;9.22;57.79;99573.09;4922320;29;20233;-49
2021/12/10 09:11:06;;;;;;;14.10;10.07;;;6.60;73.40;;;9.21;57.44;99560.16;4923729;29;20234;-49
2021/12/10 09:13:35;;;;;;;13.27;10.07;;;6.60;73.30;;;9.22;57.99;99562.59;4923359;29;20725;-48
2021/12/10 09:16:12;;;;;;;12.93;10.00;;;6.60;73.30;;;9.25;58.00;99570.09;4924849;29;20285;-48
2021/12/10 09:18:40;;;;;;;14.97;11.03;;;6.60;73.30;;;9.30;57.83;99561.63;4923915;29;20222;-48
2021/12/10 09:21:09;;;;;;;13.43;10.93;;;6.60;73.50;;;9.36;57.75;99556.41;4924369;29;20212;-49
2021/12/10 09:23:39;;;;;;;13.90;9.70;;;6.70;73.60;;;9.41;57.91;99551.38;4924588;29;20267;-47
2021/12/10 09:26:13;;;;;;;14.07;11.10;;;6.70;73.70;;;9.47;57.36;99558.47;4924682;29;20238;-49
2021/12/10 09:28:45;;;;;;;15.83;10.43;;;6.70;73.50;;;9.50;56.93;99555.47;4922908;29;20232;-51
2021/12/10 09:31:15;;;;;;;17.43;11.13;;;6.70;73.30;;;9.51;57.24;99562.31;4924445;29;20201;-47
2021/12/10 09:33:46;;;;;;;15.47;11.57;;;6.80;73.20;;;9.54;56.99;99551.44;4925072;29;20285;-47
2021/12/10 09:36:15;;;;;;;15.73;10.33;;;6.80;73.00;;;9.64;56.97;99553.69;4923442;29;20280;-47
2021/12/10 09:38:42;;;;;;;17.30;10.70;;;6.80;73.20;;;9.82;56.61;99555.72;4923402;29;20232;-48
2021/12/10 09:41:11;;;;;;;14.47;11.07;;;6.90;74.20;;;9.95;56.47;99550.50;4924619;29;20200;-48
2021/12/10 09:43:41;;;;;;;11.83;9.37;;;7.00;73.20;;;10.00;56.13;99550.72;4924875;29;20212;-47
2021/12/10 09:46:21;;;;;;;12.73;10.00;;;7.10;72.80;;;10.03;55.92;99548.50;4924923;29;20237;-52
2021/12/10 09:48:51;;;;;;;12.20;9.63;;;7.20;72.20;;;9.97;55.40;99553.75;4924742;29;20709;-49
2021/12/10 09:51:26;;;;;;;12.87;9.73;;;7.20;70.90;;;9.88;54.72;99549.69;4924905;29;20569;-50
2021/12/10 09:53:58;;;;;;;15.53;10.67;;;7.20;70.30;;;9.80;55.14;99549.88;4925668;29;20193;-48
2021/12/10 09:56:27;;;;;;;12.80;9.37;;;7.20;70.10;;;9.80;55.46;99549.88;4926393;29;20280;-48
2021/12/10 09:58:58;;;;;;;13.77;9.40;;;7.20;70.40;;;9.77;55.13;99547.66;4919975;29;20614;-48
2021/12/10 10:01:33;;;;;;;13.53;9.10;;;7.20;70.00;;;9.73;55.45;99536.72;4935990;29;20291;-48
2021/12/10 10:04:05;;;;;;;10.93;9.10;;;7.20;70.10;;;9.93;55.22;99549.91;4958772;29;20189;-50
2021/12/10 10:06:37;;;;;;;12.57;8.70;;;7.20;70.70;;;10.28;55.34;99550.56;4953479;29;20690;-48
2021/12/10 10:09:10;;;;;;;9.93;8.17;;;7.40;70.70;;;10.93;54.17;99547.91;4925753;29;20218;-49
2021/12/10 10:11:57;;;;;;;11.17;8.20;;;7.70;70.90;;;11.60;52.07;99542.16;4941348;29;20227;-48
2021/12/10 10:14:26;;;;;;;9.87;8.00;;;8.20;70.30;;;11.87;51.67;99541.03;4955573;29;20731;-50
2021/12/10 10:16:55;;;;;;;11.73;7.93;;;8.50;68.40;;;11.90;50.34;99542.44;4946044;29;20220;-50
2021/12/10 10:19:25;;;;;;;10.47;8.50;;;8.70;66.20;;;11.84;50.11;99535.41;4944585;29;20205;-49
2021/12/10 10:21:57;;;;;;;11.63;8.27;;;8.90;65.10;;;11.69;50.57;99540.94;4939190;29;20276;-48
2021/12/10 10:24:28;;;;;;;10.47;8.20;;;8.90;64.70;;;11.58;49.88;99539.75;4937849;29;20216;-49
2021/12/10 10:27:02;;;;;;;10.30;8.03;;;8.80;63.90;;;11.56;50.35;99538.34;4929153;29;20346;-50
2021/12/10 10:29:36;;;;;;;10.40;8.70;;;8.80;64.30;;;11.53;50.29;99547.47;4927034;29;20654;-49
2021/12/10 10:32:10;;;;;;;10.10;7.97;;;8.80;64.30;;;11.54;50.60;99546.47;4924168;29;20197;-48
2021/12/10 10:34:41;;;;;;;10.93;7.80;;;8.80;64.60;;;11.50;50.61;99536.56;4926925;29;20571;-50
2021/12/10 10:37:10;;;;;;;10.73;8.03;;;8.80;64.30;;;11.51;50.30;99541.59;4925304;29;20678;-50
2021/12/10 10:39:41;;;;;;;10.67;7.93;;;8.70;64.70;;;11.58;50.59;99536.28;4918348;29;20497;-47
2021/12/10 10:42:16;;;;;;;12.30;7.60;;;8.70;65.30;;;11.67;50.50;99542.94;4932413;28;20233;-48
2021/12/10 10:44:59;;;;;;;9.70;7.53;;;8.70;65.30;;;11.76;50.35;99535.63;4935425;29;20258;-48
2021/12/10 10:47:29;;;;;;;14.00;9.03;;;8.80;65.50;;;11.78;49.69;99534.41;4944881;29;20244;-48
2021/12/10 10:50:01;;;;;;;10.17;7.13;;;8.80;64.60;;;11.90;49.61;99522.16;4930795;29;20222;-49